createdAt,value
2022-08-22T00:00:17.776Z,99710.22
2022-08-22T00:02:47.157Z,99736.13
2022-08-22T00:03:03.075Z,99729.03
2022-08-22T00:03:07.364Z,99720.53
2022-08-22T00:06:00.949Z,99711.06
2022-08-22T00:08:38.985Z,99705.53
2022-08-22T00:11:18.782Z,99704.13
2022-08-22T00:14:01.771Z,99696.06
2022-08-22T00:16:28.535Z,99703.81
2022-08-22T00:18:53.232Z,99695.63
2022-08-22T00:21:37.700Z,99709.22
2022-08-22T00:23:54.964Z,99705.81
2022-08-22T00:26:18.926Z,99708.81
2022-08-22T00:28:32.913Z,99694.34
2022-08-22T00:30:57.412Z,99695.63
2022-08-22T00:33:11.753Z,99688.53
2022-08-22T00:35:20.931Z,99688.53
2022-08-22T00:37:26.990Z,99689.66
2022-08-22T00:39:54.631Z,99670.28
2022-08-22T00:42:38.653Z,99693.63
2022-08-22T00:45:12.354Z,99688.56
2022-08-22T00:47:33.453Z,99687.84
2022-08-22T00:49:59.875Z,99684.03
2022-08-22T00:52:38.902Z,99694.34
2022-08-22T00:55:10.042Z,99694.78
2022-08-22T00:57:56.096Z,99695.91
2022-08-22T01:00:24.533Z,99685.44
2022-08-22T01:02:52.694Z,99686.31
2022-08-22T01:05:37.923Z,99694.19
2022-08-22T01:08:00.057Z,99700.47
2022-08-22T01:10:36.958Z,99693.22
2022-08-22T01:13:23.943Z,99688.69
2022-08-22T01:15:38.153Z,99693.22
2022-08-22T01:18:17.771Z,99688.13
2022-08-22T01:20:50.153Z,99677.78
2022-08-22T01:23:26.954Z,99674.97
2022-08-22T01:25:59.964Z,99664.91
2022-08-22T01:28:34.218Z,99654.69
2022-08-22T01:31:11.958Z,99662.31
2022-08-22T01:33:55.356Z,99662.59
2022-08-22T01:36:35.914Z,99656.75
2022-08-22T01:38:56.927Z,99657.91
2022-08-22T01:41:27.152Z,99666.09
2022-08-22T01:44:03.637Z,99661.03
2022-08-22T01:46:42.952Z,99663.25
2022-08-22T01:49:14.414Z,99662.69
2022-08-22T01:51:34.074Z,99658.47
2022-08-22T01:53:41.674Z,99657.06
2022-08-22T01:56:19.773Z,99651.38
2022-08-22T01:58:31.573Z,99653.94
2022-08-22T02:01:32.712Z,99651.84
2022-08-22T02:04:08.349Z,99667.88
2022-08-22T02:06:25.893Z,99661.50
2022-08-22T02:08:49.853Z,99672.13
2022-08-22T02:11:11.505Z,99674.13
2022-08-22T02:13:39.928Z,99673.69
2022-08-22T02:16:13.032Z,99672.41
2022-08-22T02:18:40.997Z,99676.38
2022-08-22T02:21:06.949Z,99673.25
2022-08-22T02:23:38.927Z,99680.34
2022-08-22T02:26:12.492Z,99686.97
2022-08-22T02:28:57.049Z,99673.00
2022-08-22T02:31:16.917Z,99688.38
2022-08-22T02:33:34.442Z,99675.81
2022-08-22T02:35:59.653Z,99678.19
2022-08-22T02:38:29.073Z,99671.66
2022-08-22T02:40:58.774Z,99665.03
2022-08-22T02:43:54.193Z,99682.31
2022-08-22T02:46:17.738Z,99682.31
2022-08-22T02:48:49.812Z,99687.69
2022-08-22T02:51:27.512Z,99680.31
2022-08-22T02:54:08.394Z,99687.09
2022-08-22T02:56:29.942Z,99685.44
2022-08-22T02:58:59.155Z,99693.75
2022-08-22T03:01:25.619Z,99696.00
2022-08-22T03:03:37.412Z,99702.09
2022-08-22T03:06:01.443Z,99700.81
2022-08-22T03:08:20.083Z,99698.69
2022-08-22T03:10:30.393Z,99689.19
2022-08-22T03:12:59.983Z,99696.41
2022-08-22T03:15:17.008Z,99699.09
2022-08-22T03:17:33.097Z,99698.66
2022-08-22T03:19:54.115Z,99694.66
2022-08-22T03:22:06.515Z,99700.63
2022-08-22T03:24:56.983Z,99689.84
2022-08-22T03:27:32.830Z,99685.31
2022-08-22T03:29:49.970Z,99673.56
2022-08-22T03:32:13.354Z,99682.03
2022-08-22T03:34:23.699Z,99679.66
2022-08-22T03:36:29.952Z,99673.16
2022-08-22T03:38:33.131Z,99674.16
2022-08-22T03:40:50.053Z,99676.16
2022-08-22T03:43:26.833Z,99679.69
2022-08-22T03:45:35.652Z,99693.00
2022-08-22T03:48:16.513Z,99688.75
2022-08-22T03:50:54.595Z,99699.25
2022-08-22T03:53:18.624Z,99697.25
2022-08-22T03:56:04.075Z,99700.09
2022-08-22T03:58:27.877Z,99697.00
2022-08-22T04:00:51.023Z,99691.75
2022-08-22T04:03:39.152Z,99695.28
2022-08-22T04:06:00.036Z,99695.56
2022-08-22T04:08:30.966Z,99680.13
2022-08-22T04:11:04.893Z,99698.69
2022-08-22T04:13:27.533Z,99702.66
2022-08-22T04:16:17.835Z,99697.97
2022-08-22T04:18:48.144Z,99701.22
2022-08-22T04:21:47.053Z,99702.06
2022-08-22T04:24:21.247Z,99698.13
2022-08-22T04:26:37.340Z,99706.06
2022-08-22T04:28:49.331Z,99710.03
2022-08-22T04:31:01.532Z,99704.91
2022-08-22T04:33:27.254Z,99705.22
2022-08-22T04:36:03.536Z,99700.56
2022-08-22T04:38:15.986Z,99716.00
2022-08-22T04:40:48.947Z,99712.59
2022-08-22T04:43:03.672Z,99711.34
2022-08-22T04:45:41.961Z,99707.78
2022-08-22T04:48:09.852Z,99705.25
2022-08-22T04:50:26.566Z,99705.25
2022-08-22T04:52:50.833Z,99701.56
2022-08-22T04:54:58.001Z,99712.91
2022-08-22T04:57:21.923Z,99713.88
2022-08-22T04:59:25.981Z,99713.19
2022-08-22T05:01:45.211Z,99709.91
2022-08-22T05:03:59.494Z,99718.28
2022-08-22T05:06:07.601Z,99714.59
2022-08-22T05:08:19.992Z,99715.44
2022-08-22T05:10:39.895Z,99714.47
2022-08-22T05:12:55.075Z,99719.72
2022-08-22T05:15:30.612Z,99716.00
2022-08-22T05:17:36.675Z,99720.28
2022-08-22T05:19:46.515Z,99715.03
2022-08-22T05:21:51.853Z,99720.28
2022-08-22T05:24:14.592Z,99701.84
2022-08-22T05:26:20.133Z,99711.34
2022-08-22T05:28:39.393Z,99721.13
2022-08-22T05:30:47.493Z,99724.66
2022-08-22T05:33:32.955Z,99733.00
2022-08-22T05:35:50.797Z,99733.88
2022-08-22T05:37:58.047Z,99731.03
2022-08-22T05:40:02.742Z,99727.22
2022-08-22T05:42:14.093Z,99739.81
2022-08-22T05:44:21.072Z,99734.28
2022-08-22T05:46:38.394Z,99724.53
2022-08-22T05:48:50.948Z,99729.78
2022-08-22T05:51:23.161Z,99736.84
2022-08-22T05:53:42.731Z,99736.97
2022-08-22T05:55:48.987Z,99734.97
2022-08-22T05:58:31.083Z,99741.38
2022-08-22T06:00:43.173Z,99740.22
2022-08-22T06:03:19.542Z,99745.75
2022-08-22T06:05:29.302Z,99743.22
2022-08-22T06:07:43.932Z,99754.00
2022-08-22T06:09:46.963Z,99749.44
2022-08-22T06:12:00.865Z,99750.88
2022-08-22T06:14:37.842Z,99755.97
2022-08-22T06:17:20.174Z,99752.00
2022-08-22T06:19:25.810Z,99749.44
2022-08-22T06:21:37.695Z,99754.00
2022-08-22T06:24:09.763Z,99739.25
2022-08-22T06:26:21.188Z,99738.81
2022-08-22T06:28:29.875Z,99755.53
2022-08-22T06:30:37.033Z,99744.78
2022-08-22T06:33:00.256Z,99741.38
2022-08-22T06:35:17.712Z,99741.06
2022-08-22T06:37:32.073Z,99754.97
2022-08-22T06:39:42.051Z,99745.19
2022-08-22T06:41:57.589Z,99746.47
2022-08-22T06:44:04.927Z,99750.88
2022-08-22T06:46:10.418Z,99755.69
2022-08-22T06:48:19.940Z,99753.69
2022-08-22T06:50:35.111Z,99757.09
2022-08-22T06:53:07.823Z,99758.94
2022-08-22T06:55:12.984Z,99764.47
2022-08-22T06:57:39.383Z,99759.66
2022-08-22T06:59:46.133Z,99755.09
2022-08-22T07:02:10.983Z,99767.84
2022-08-22T07:04:16.482Z,99769.13
2022-08-22T07:06:36.053Z,99748.88
2022-08-22T07:08:43.175Z,99756.63
2022-08-22T07:11:15.960Z,99759.34
2022-08-22T07:13:20.832Z,99767.53
2022-08-22T07:15:37.652Z,99767.84
2022-08-22T07:17:53.133Z,99763.44
2022-08-22T07:20:08.294Z,99767.53
2022-08-22T07:22:39.949Z,99770.94
2022-08-22T07:24:53.155Z,99768.25
2022-08-22T07:27:37.984Z,99768.94
2022-08-22T07:30:16.143Z,99771.25
2022-08-22T07:32:52.969Z,99770.22
2022-08-22T07:35:38.264Z,99770.94
2022-08-22T07:38:16.690Z,99778.63
2022-08-22T07:40:54.791Z,99782.59
2022-08-22T07:43:30.144Z,99776.34
2022-08-22T07:45:48.792Z,99775.50
2022-08-22T07:48:26.249Z,99772.78
2022-08-22T07:51:08.076Z,99779.19
2022-08-22T07:53:41.952Z,99769.41
2022-08-22T07:56:03.391Z,99771.38
2022-08-22T07:58:15.294Z,99779.59
2022-08-22T08:00:25.082Z,99783.69
2022-08-22T08:03:06.511Z,99783.00
2022-08-22T08:05:17.585Z,99784.28
2022-08-22T08:07:35.410Z,99776.78
2022-08-22T08:10:01.340Z,99783.72
2022-08-22T08:12:13.122Z,99772.53
2022-08-22T08:14:22.665Z,99774.38
2022-08-22T08:16:33.555Z,99779.91
2022-08-22T08:18:42.053Z,99786.13
2022-08-22T08:21:07.564Z,99776.34
2022-08-22T08:23:16.372Z,99769.41
2022-08-22T08:25:30.734Z,99775.34
2022-08-22T08:27:39.253Z,99781.59
2022-08-22T08:29:59.540Z,99779.59
2022-08-22T08:32:07.112Z,99786.25
2022-08-22T08:34:23.717Z,99783.13
2022-08-22T08:36:38.783Z,99782.13
2022-08-22T08:39:25.946Z,99783.84
2022-08-22T08:42:22.284Z,99767.25
2022-08-22T08:45:32.905Z,99770.69
2022-08-22T08:47:56.934Z,99765.53
2022-08-22T08:50:21.381Z,99764.41
2022-08-22T08:53:07.760Z,99770.34
2022-08-22T08:55:36.161Z,99762.41
2022-08-22T09:01:45.053Z,99760.28
2022-08-22T09:04:25.959Z,99762.13
2022-08-22T09:07:15.547Z,99764.38
2022-08-22T09:10:00.969Z,99747.38
2022-08-22T09:13:11.842Z,99768.47
2022-08-22T09:16:10.882Z,99763.50
2022-08-22T09:18:36.826Z,99755.84
2022-08-22T09:21:30.414Z,99767.50
2022-08-22T09:24:16.369Z,99769.44
2022-08-22T09:26:57.198Z,99754.44
2022-08-22T09:29:54.882Z,99760.09
2022-08-22T09:32:19.998Z,99763.50
2022-08-22T09:34:44.104Z,99757.50
2022-08-22T09:37:22.946Z,99764.31
2022-08-22T09:39:51.116Z,99757.50
2022-08-22T09:42:10.044Z,99760.50
2022-08-22T09:44:53.975Z,99753.81
2022-08-22T09:47:25.034Z,99754.38
2022-08-22T09:49:44.904Z,99760.31
2022-08-22T09:52:04.814Z,99758.84
2022-08-22T09:54:32.817Z,99756.16
2022-08-22T09:57:23.364Z,99748.25
2022-08-22T10:00:04.545Z,99751.41
2022-08-22T10:02:22.474Z,99756.22
2022-08-22T10:05:09.586Z,99755.94
2022-08-22T10:07:42.164Z,99749.50
2022-08-22T10:10:16.974Z,99751.22
2022-08-22T10:12:56.085Z,99753.94
2022-08-22T10:15:36.873Z,99760.00
2022-08-22T10:17:57.065Z,99750.53
2022-08-22T10:20:22.936Z,99752.63
2022-08-22T10:22:39.995Z,99756.44
2022-08-22T10:25:18.944Z,99761.38
2022-08-22T10:27:54.971Z,99758.09
2022-08-22T10:30:21.725Z,99760.66
2022-08-22T10:33:02.904Z,99761.91
2022-08-22T10:36:15.919Z,99771.78
2022-08-22T10:39:11.605Z,99770.50
2022-08-22T10:43:28.778Z,99774.44
2022-08-22T10:45:43.000Z,99768.34
2022-08-22T10:52:34.817Z,99769.22
2022-08-22T10:54:56.964Z,99763.59
2022-08-22T10:57:38.184Z,99765.91
2022-08-22T11:16:10.276Z,99778.63
2022-08-22T11:19:01.854Z,99776.81
2022-08-22T11:21:12.850Z,99772.72
2022-08-22T11:23:48.310Z,99772.78
2022-08-22T11:26:29.970Z,99765.41
2022-08-22T11:29:12.356Z,99770.50
2022-08-22T11:31:55.106Z,99774.44
2022-08-22T11:34:17.030Z,99768.22
2022-08-22T11:36:51.936Z,99777.22
2022-08-22T11:39:28.645Z,99778.16
2022-08-22T11:41:53.120Z,99779.41
2022-08-22T11:44:11.985Z,99779.41
2022-08-22T11:46:31.247Z,99781.94
2022-08-22T11:49:09.055Z,99775.94
2022-08-22T11:52:03.732Z,99766.16
2022-08-22T11:55:04.464Z,99777.03
2022-08-22T11:57:45.062Z,99780.78
2022-08-22T12:00:27.950Z,99785.13
2022-08-22T12:02:47.976Z,99783.63
2022-08-22T12:05:11.311Z,99777.84
2022-08-22T12:07:40.965Z,99776.53
2022-08-22T12:10:13.534Z,99775.38
2022-08-22T12:12:42.767Z,99775.38
2022-08-22T12:15:48.960Z,99779.84
2022-08-22T12:19:23.052Z,99779.06
2022-08-22T12:22:06.923Z,99784.81
2022-08-22T12:24:47.245Z,99777.75
2022-08-22T12:30:17.945Z,99772.78
2022-08-22T12:33:06.168Z,99771.09
2022-08-22T12:43:56.305Z,99766.88
2022-08-22T13:32:08.703Z,99755.16
2022-08-22T13:34:39.551Z,99755.91
2022-08-22T13:48:21.625Z,99760.00
2022-08-22T13:53:08.444Z,99755.16
2022-08-22T14:29:03.121Z,99754.50
2022-08-22T14:33:19.238Z,99762.03
2022-08-22T14:39:44.094Z,99763.84
2022-08-22T14:42:18.685Z,99748.56
2022-08-22T14:45:25.725Z,99740.09
2022-08-22T14:48:29.876Z,99750.41
2022-08-22T14:51:04.529Z,99757.91
2022-08-22T14:53:47.745Z,99733.16
2022-08-22T14:56:32.914Z,99759.47
2022-08-22T15:02:25.963Z,99738.38
2022-08-22T15:06:13.944Z,99751.66
2022-08-22T15:12:55.783Z,99730.38
2022-08-22T15:15:52.852Z,99739.16
2022-08-22T15:18:32.005Z,99735.78
2022-08-22T15:20:45.446Z,99735.59
2022-08-22T15:23:11.094Z,99727.81
2022-08-22T15:25:46.889Z,99709.06
2022-08-22T15:28:53.206Z,99743.59
2022-08-22T15:31:34.171Z,99722.41
2022-08-22T15:34:04.093Z,99720.78
2022-08-22T15:36:41.705Z,99741.16
2022-08-22T15:39:45.878Z,99710.16
2022-08-22T15:42:35.175Z,99737.44
2022-08-22T15:44:53.817Z,99735.91
2022-08-22T15:47:53.511Z,99740.34
2022-08-22T15:50:42.285Z,99744.28
2022-08-22T15:53:43.124Z,99740.94
2022-08-22T15:56:10.953Z,99743.91
2022-08-22T15:58:48.162Z,99716.41
2022-08-22T16:01:35.090Z,99726.91
2022-08-22T16:04:11.744Z,99751.38
2022-08-22T16:06:52.422Z,99730.69
2022-08-22T16:09:31.744Z,99715.94
2022-08-22T16:11:40.455Z,99736.31
2022-08-22T16:13:46.846Z,99742.25
2022-08-22T16:16:09.483Z,99735.63
2022-08-22T16:18:41.642Z,99745.09
2022-08-22T16:20:59.167Z,99743.72
2022-08-22T16:23:23.003Z,99739.50
2022-08-22T16:25:48.944Z,99742.66
2022-08-22T16:27:59.803Z,99744.66
2022-08-22T16:30:16.144Z,99742.41
2022-08-22T16:32:27.942Z,99751.75
2022-08-22T16:34:44.082Z,99747.03
2022-08-22T16:37:13.923Z,99748.28
2022-08-22T16:39:23.945Z,99741.72
2022-08-22T16:41:39.143Z,99737.47
2022-08-22T16:43:55.166Z,99730.81
2022-08-22T16:45:59.744Z,99749.38
2022-08-22T16:48:25.044Z,99739.38
2022-08-22T16:50:37.143Z,99742.25
2022-08-22T16:53:18.983Z,99743.78
2022-08-22T16:55:35.123Z,99758.66
2022-08-22T16:58:06.132Z,99748.19
2022-08-22T17:00:34.533Z,99759.34
2022-08-22T17:02:51.923Z,99754.81
2022-08-22T17:05:19.002Z,99759.34
2022-08-22T17:07:49.642Z,99755.97
2022-08-22T17:10:12.933Z,99756.84
2022-08-22T17:12:25.943Z,99760.69
2022-08-22T17:14:52.267Z,99760.34
2022-08-22T17:17:13.345Z,99758.63
2022-08-22T17:19:47.970Z,99763.69
2022-08-22T17:22:05.964Z,99768.06
2022-08-22T17:24:48.931Z,99768.06
2022-08-22T17:27:01.544Z,99769.06
2022-08-22T17:29:19.157Z,99768.25
2022-08-22T17:31:42.543Z,99756.00
2022-08-22T17:34:21.264Z,99763.41
2022-08-22T17:36:51.768Z,99768.31
2022-08-22T17:39:16.063Z,99768.81
2022-08-22T17:41:50.165Z,99774.78
2022-08-22T17:44:08.103Z,99776.16
2022-08-22T17:49:47.755Z,99774.16
2022-08-22T17:52:27.821Z,99774.50
2022-08-22T17:55:04.590Z,99784.13
2022-08-22T17:57:52.122Z,99771.38
2022-08-22T18:00:27.354Z,99777.34
2022-08-22T18:03:01.984Z,99772.09
2022-08-22T18:17:07.095Z,99775.66
2022-08-22T18:38:00.384Z,99768.03
2022-08-22T19:07:55.664Z,99788.25
2022-08-22T19:10:51.197Z,99788.59
2022-08-22T19:17:58.805Z,99788.25
2022-08-22T19:31:45.245Z,99778.97
2022-08-22T19:35:09.755Z,99784.34
2022-08-22T19:38:06.725Z,99783.47
2022-08-22T19:41:01.498Z,99781.81
2022-08-22T19:43:54.348Z,99776.69
2022-08-22T19:53:46.553Z,99778.69
2022-08-22T19:56:25.239Z,99767.69
2022-08-22T19:59:20.465Z,99774.47
2022-08-22T20:05:44.158Z,99775.31
2022-08-22T20:09:01.809Z,99778.00
2022-08-22T20:12:15.766Z,99772.47
2022-08-22T20:18:47.323Z,99763.53
2022-08-22T20:21:55.726Z,99738.59
2022-08-22T20:24:25.767Z,99761.97
2022-08-22T20:32:38.940Z,99761.44
2022-08-22T20:35:53.569Z,99763.97
2022-08-22T20:38:20.640Z,99760.56
2022-08-22T20:41:11.382Z,99758.41
2022-08-22T20:43:56.586Z,99761.13
2022-08-22T20:47:11.242Z,99747.63
2022-08-22T20:50:09.553Z,99748.63
2022-08-22T20:53:32.087Z,99744.22
2022-08-22T20:56:27.107Z,99745.06
2022-08-22T20:59:08.264Z,99734.59
2022-08-22T21:01:27.873Z,99745.88
2022-08-22T21:03:57.842Z,99739.28
2022-08-22T21:06:44.354Z,99739.28
2022-08-22T21:09:23.391Z,99738.47
2022-08-22T21:11:40.394Z,99739.28
2022-08-22T21:13:55.760Z,99734.44
2022-08-22T21:16:39.960Z,99728.34
2022-08-22T21:18:56.945Z,99733.75
2022-08-22T21:25:14.690Z,99726.97
2022-08-22T21:27:54.284Z,99732.19
2022-08-22T21:30:08.876Z,99726.09
2022-08-22T21:32:46.562Z,99720.53
2022-08-22T21:35:01.534Z,99724.25
2022-08-22T21:37:42.606Z,99722.94
2022-08-22T21:40:45.393Z,99707.88
2022-08-22T21:43:22.161Z,99711.47
2022-08-22T21:45:47.881Z,99713.28
2022-08-22T21:47:58.806Z,99714.84
2022-08-22T21:50:49.941Z,99719.38
2022-08-22T21:53:27.050Z,99721.25
2022-08-22T21:55:47.537Z,99715.97
2022-08-22T21:58:35.562Z,99711.47
2022-08-22T22:00:54.977Z,99712.16
2022-08-22T22:03:04.899Z,99717.69
2022-08-22T22:05:18.119Z,99729.03
2022-08-22T22:07:26.117Z,99725.31
2022-08-22T22:09:31.481Z,99718.25
2022-08-22T22:11:36.985Z,99722.31
2022-08-22T22:13:44.487Z,99713.69
2022-08-22T22:15:52.703Z,99720.63
2022-08-22T22:17:59.060Z,99713.34
2022-08-22T22:20:13.957Z,99709.97
2022-08-22T22:22:18.125Z,99717.75
2022-08-22T22:24:23.884Z,99705.56
2022-08-22T22:26:30.926Z,99719.44
2022-08-22T22:28:42.663Z,99714.91
2022-08-22T22:30:51.164Z,99704.56
2022-08-22T22:32:56.303Z,99714.03
2022-08-22T22:35:00.295Z,99712.34
2022-08-22T22:37:06.784Z,99705.94
2022-08-22T22:39:13.630Z,99707.50
2022-08-22T22:41:18.356Z,99697.00
2022-08-22T22:43:22.669Z,99705.50
2022-08-22T22:45:30.685Z,99710.56
2022-08-22T22:47:36.012Z,99708.00
2022-08-22T22:49:39.973Z,99708.88
2022-08-22T22:51:45.048Z,99708.41
2022-08-22T22:53:49.883Z,99708.25
2022-08-22T22:55:59.582Z,99706.25
2022-08-22T22:58:05.932Z,99703.22
2022-08-22T23:00:12.143Z,99702.91
2022-08-22T23:02:22.080Z,99702.56
2022-08-22T23:04:26.957Z,99696.19
2022-08-22T23:06:33.383Z,99691.47
2022-08-22T23:08:37.704Z,99686.91
2022-08-22T23:10:41.907Z,99678.44
2022-08-22T23:12:46.123Z,99689.06
2022-08-22T23:14:49.993Z,99679.78
2022-08-22T23:16:57.925Z,99679.28
2022-08-22T23:19:02.221Z,99680.47
2022-08-22T23:21:19.664Z,99680.47
2022-08-22T23:23:24.583Z,99671.28
2022-08-22T23:25:28.990Z,99673.81
2022-08-22T23:27:32.987Z,99675.34
2022-08-22T23:29:40.905Z,99674.63
2022-08-22T23:31:53.310Z,99665.34
2022-08-22T23:34:03.364Z,99683.59
2022-08-22T23:36:14.944Z,99682.22
2022-08-22T23:38:20.178Z,99673.78
2022-08-22T23:40:25.884Z,99680.69
2022-08-22T23:42:30.736Z,99655.13
2022-08-22T23:44:36.924Z,99677.16
2022-08-22T23:46:40.503Z,99677.31
2022-08-22T23:48:44.945Z,99663.91
2022-08-22T23:50:48.917Z,99659.34
2022-08-22T23:52:51.982Z,99678.78
2022-08-22T23:54:56.729Z,99677.78
2022-08-22T23:57:03.723Z,99679.63
2022-08-22T23:59:20.424Z,99672.00
